Time;durP1;ratioP1;P1;durP2;ratioP2;P2;SDS_P1;SDS_P2;PMS_P1;PMS_P2;Temp;Humidity;BMP_temperature;BMP_pressure;BME280_temperature;BME280_humidity;BME280_pressure;Samples;Min_cycle;Max_cycle;Signal;HPM_P1;HPM_P2
2022/08/10 00:00:52;;;;;;;1.50;1.40;;;;;;;16.73;100.00;102651.13;4976773;28;20035;-57
2022/08/10 00:03:17;;;;;;;1.80;1.33;;;;;;;16.83;100.00;102672.13;4976723;28;20067;-57
2022/08/10 00:05:43;;;;;;;1.40;1.30;;;;;;;16.58;100.00;102628.53;4991514;28;20068;-59
2022/08/10 00:08:08;;;;;;;1.40;1.23;;;;;;;16.56;100.00;102632.16;4975035;28;20477;-55
2022/08/10 00:10:33;;;;;;;1.60;1.40;;;;;;;16.78;100.00;102687.31;4991132;28;20442;-59
2022/08/10 00:12:59;;;;;;;1.42;1.30;;;;;;;16.77;100.00;102682.06;4976437;28;20441;-59
2022/08/10 00:15:24;;;;;;;1.60;1.40;;;;;;;16.73;100.00;102680.41;4991376;28;20447;-54
2022/08/10 00:17:50;;;;;;;1.30;1.20;;;;;;;16.71;100.00;102692.88;4976422;28;20034;-56
2022/08/10 00:20:15;;;;;;;1.40;1.30;;;;;;;16.68;100.00;102688.50;4976356;28;20031;-57
2022/08/10 00:22:41;;;;;;;3.50;1.50;;;;;;;16.41;100.00;102643.19;4991366;28;20033;-53
2022/08/10 00:25:07;;;;;;;1.45;1.27;;;;;;;16.51;100.00;102665.94;4991186;28;20043;-54
2022/08/10 00:27:33;;;;;;;1.80;1.60;;;;;;;16.54;100.00;102677.41;4974920;28;20062;-56
2022/08/10 00:29:59;;;;;;;1.50;1.40;;;;;;;16.25;100.00;102630.34;4976315;28;20073;-56
2022/08/10 00:32:24;;;;;;;1.65;1.23;;;;;;;16.34;100.00;102642.50;4991043;28;20201;-58
2022/08/10 00:34:50;;;;;;;1.30;1.20;;;;;;;16.53;100.00;102686.25;4976087;28;20043;-56
2022/08/10 00:37:16;;;;;;;2.60;1.70;;;;;;;16.48;100.00;102674.00;4976047;28;20031;-57
2022/08/10 00:39:41;;;;;;;1.40;1.30;;;;;;;16.13;100.00;102627.13;4975707;28;20505;-56
2022/08/10 00:42:08;;;;;;;2.72;1.50;;;;;;;16.15;100.00;102634.16;4975933;28;20031;-56
2022/08/10 00:44:35;;;;;;;1.58;1.48;;;;;;;16.18;100.00;102631.41;4975858;28;20047;-56
2022/08/10 00:47:00;;;;;;;1.50;1.40;;;;;;;16.13;100.00;102636.00;4975923;28;20031;-57
2022/08/10 00:49:26;;;;;;;1.58;1.48;;;;;;;16.38;100.00;102685.78;4975865;28;20038;-57
2022/08/10 00:51:53;;;;;;;2.63;1.45;;;;;;;16.20;100.00;102649.94;4990776;28;20031;-55
2022/08/10 00:54:18;;;;;;;2.05;1.60;;;;;;;16.34;100.00;102674.41;4975542;28;20130;-58
2022/08/10 00:56:44;;;;;;;2.25;1.63;;;;;;;15.86;100.00;102596.88;4974603;28;20085;-56
2022/08/10 00:59:09;;;;;;;1.58;1.48;;;;;;;16.25;100.00;102675.53;4974638;28;20038;-55
2022/08/10 01:01:34;;;;;;;1.60;1.50;;;;;;;16.22;100.00;102667.63;4975468;28;20038;-57
2022/08/10 01:04:01;;;;;;;1.40;1.30;;;;;;;16.25;100.00;102683.50;4974692;28;20053;-57
2022/08/10 01:06:54;;;;;;;1.50;1.40;;;;;;;16.13;100.00;102665.22;4975611;28;20034;-56
2022/08/10 01:09:36;;;;;;;1.55;1.45;;;;;;;16.23;100.00;102673.78;4975279;28;20113;-58
2022/08/10 01:12:09;;;;;;;1.60;1.50;;;;;;;16.12;100.00;102663.47;4990521;28;20034;-55
2022/08/10 01:14:44;;;;;;;2.00;1.80;;;;;;;15.92;100.00;102622.41;4990247;28;20118;-58
2022/08/10 01:17:12;;;;;;;6.68;2.03;;;;;;;16.12;100.00;102662.56;4975147;28;20030;-55
2022/08/10 01:19:38;;;;;;;3.03;1.90;;;;;;;16.13;100.00;102688.25;4990271;28;20115;-54
2022/08/10 01:22:25;;;;;;;2.70;1.88;;;;;;;16.10;100.00;102667.06;4975549;28;20043;-57
2022/08/10 01:24:53;;;;;;;3.05;1.92;;;;;;;16.08;100.00;102663.59;4990570;28;20434;-58
2022/08/10 01:28:08;;;;;;;3.30;1.77;;;;;;;16.03;100.00;102658.38;4975137;28;20138;-56
2022/08/10 01:30:34;;;;;;;3.22;1.83;;;;;;;15.92;100.00;102640.97;4972501;28;20182;-58
2022/08/10 01:33:09;;;;;;;2.13;1.98;;;;;;;15.66;100.00;102605.38;4974859;28;20502;-57
2022/08/10 01:35:57;;;;;;;3.53;1.92;;;;;;;15.97;100.00;102665.63;4989849;28;20034;-58
2022/08/10 01:38:36;;;;;;;1.67;1.58;;;;;;;15.94;100.00;102658.63;4989533;28;20401;-58
2022/08/10 01:41:17;;;;;;;2.05;1.63;;;;;;;15.89;100.00;102654.34;4989708;28;20509;-58
2022/08/10 01:43:47;;;;;;;2.08;1.83;;;;;;;15.64;100.00;102623.09;4974720;28;20027;-57
2022/08/10 01:46:13;;;;;;;2.20;1.77;;;;;;;15.85;100.00;102658.00;4973461;28;20035;-57
2022/08/10 01:48:42;;;;;;;2.88;2.17;;;;;;;15.54;100.00;102603.00;4989612;28;20545;-60
2022/08/10 01:51:19;;;;;;;2.60;2.10;;;;;;;15.55;100.00;102619.81;4989659;28;20130;-58
2022/08/10 01:53:55;;;;;;;2.17;1.98;;;;;;;15.72;100.00;102646.81;4974594;28;20038;-59
2022/08/10 01:56:23;;;;;;;3.15;2.08;;;;;;;15.44;100.00;102595.28;4974429;28;20049;-59
2022/08/10 01:58:58;;;;;;;2.08;1.98;;;;;;;15.69;100.00;102655.72;4989466;28;20051;-56
2022/08/10 02:01:27;;;;;;;2.95;2.38;;;;;;;15.70;100.00;102646.00;4973414;28;20045;-57
2022/08/10 02:03:55;;;;;;;2.15;1.95;;;;;;;15.41;100.00;102603.34;4974644;28;20031;-60
2022/08/10 02:06:23;;;;;;;2.10;2.00;;;;;;;15.54;100.00;102629.56;4989260;28;20023;-58
2022/08/10 02:08:48;;;;;;;3.05;2.63;;;;;;;15.60;100.00;102639.16;4989304;28;20085;-57
2022/08/10 02:11:15;;;;;;;3.83;2.40;;;;;;;15.45;100.00;102612.94;4972688;28;20486;-55
2022/08/10 02:13:41;;;;;;;2.53;2.40;;;;;;;14.97;100.00;102535.44;4989046;28;20038;-55
2022/08/10 02:16:07;;;;;;;2.97;2.40;;;;;;;15.56;100.00;102634.81;4989397;28;20062;-58
2022/08/10 02:18:33;;;;;;;3.45;2.78;;;;;;;15.52;100.00;102644.66;4973128;28;20114;-59
2022/08/10 02:21:02;;;;;;;2.97;2.60;;;;;;;15.22;100.00;102586.97;4989181;28;20082;-55
2022/08/10 02:23:29;;;;;;;2.85;2.30;;;;;;;15.52;100.00;102641.13;4974518;28;20058;-56
2022/08/10 02:25:58;;;;;;;3.08;2.45;;;;;;;15.28;100.00;102599.22;4988782;28;20035;-57
2022/08/10 02:28:25;;;;;;;2.45;2.25;;;;;;;15.24;100.00;102593.09;4973735;28;20038;-56
2022/08/10 02:30:52;;;;;;;2.47;2.30;;;;;;;15.51;100.00;102642.03;4988968;28;20035;-57
2022/08/10 02:33:20;;;;;;;2.80;2.60;;;;;;;15.30;100.00;102605.34;4988992;28;20181;-59
2022/08/10 02:35:46;;;;;;;3.10;2.90;;;;;;;15.46;100.00;102635.94;4988707;28;20023;-58
2022/08/10 02:38:12;;;;;;;2.75;2.35;;;;;;;15.40;100.00;102633.41;4988539;28;20502;-57
2022/08/10 02:40:45;;;;;;;3.97;2.47;;;;;;;15.10;100.00;102589.91;4988699;28;20057;-58
2022/08/10 02:43:19;;;;;;;3.00;2.70;;;;;;;15.30;100.00;102631.88;4988203;28;20068;-56
2022/08/10 02:45:48;;;;;;;4.40;2.35;;;;;;;15.01;100.00;102571.56;4973920;28;20354;-55
2022/08/10 02:48:31;;;;;;;2.50;2.40;;;;;;;15.34;100.00;102634.44;4973788;28;20118;-59
2022/08/10 02:51:01;;;;;;;2.85;2.60;;;;;;;15.34;100.00;102638.88;4973638;28;20462;-60
2022/08/10 02:53:32;;;;;;;2.95;2.72;;;;;;;15.31;100.00;102628.31;4973633;28;20082;-58
2022/08/10 02:56:02;;;;;;;3.03;2.83;;;;;;;14.94;100.00;102565.56;4973060;28;20126;-57
2022/08/10 02:58:32;;;;;;;3.45;3.15;;;;;;;14.94;100.00;102548.75;4988103;28;20045;-56
2022/08/10 03:00:59;;;;;;;3.05;2.85;;;;;;;15.23;100.00;102614.38;4973576;28;20042;-59
2022/08/10 03:03:29;;;;;;;2.75;2.55;;;;;;;15.22;100.00;102610.84;4972337;28;20058;-59
2022/08/10 03:05:59;;;;;;;3.28;3.08;;;;;;;15.20;100.00;102610.91;4973557;28;20093;-56
2022/08/10 03:08:28;;;;;;;3.43;3.17;;;;;;;14.86;100.00;102562.19;4973387;28;20034;-57
2022/08/10 03:10:53;;;;;;;3.75;3.33;;;;;;;15.11;100.00;102608.47;4988281;28;20034;-58
2022/08/10 03:13:20;;;;;;;3.70;3.40;;;;;;;15.10;100.00;102606.69;4972301;28;20057;-57
2022/08/10 03:15:47;;;;;;;3.67;3.38;;;;;;;15.09;100.00;102604.09;4973510;28;20030;-57
2022/08/10 03:18:12;;;;;;;4.00;2.97;;;;;;;14.99;100.00;102584.00;4988340;28;20038;-56
2022/08/10 03:20:39;;;;;;;4.40;3.67;;;;;;;14.72;100.00;102545.72;4973405;28;20430;-55
2022/08/10 03:23:17;;;;;;;3.28;3.08;;;;;;;14.95;100.00;102585.84;4991624;28;20035;-55
2022/08/10 03:25:47;;;;;;;6.60;3.35;;;;;;;14.92;100.00;102588.56;4976444;28;20035;-57
2022/08/10 03:28:13;;;;;;;3.83;3.53;;;;;;;14.93;100.00;102595.63;4992430;28;20113;-58
2022/08/10 03:30:38;;;;;;;4.95;3.50;;;;;;;14.64;100.00;102555.63;4975961;28;20122;-58
2022/08/10 03:33:06;;;;;;;3.88;3.58;;;;;;;14.85;100.00;102592.28;4992075;28;20069;-58
2022/08/10 03:35:32;;;;;;;3.92;3.63;;;;;;;14.52;100.00;102548.81;4977171;28;20105;-57
2022/08/10 03:37:58;;;;;;;4.35;3.50;;;;;;;14.54;100.00;102554.94;4991976;28;20118;-54
2022/08/10 03:40:25;;;;;;;4.30;3.60;;;;;;;14.74;100.00;102572.22;4976632;28;20502;-56
2022/08/10 03:42:53;;;;;;;4.35;3.90;;;;;;;14.82;100.00;102602.94;4992111;28;20026;-55
2022/08/10 03:45:18;;;;;;;5.18;4.32;;;;;;;14.79;100.00;102599.47;4992097;28;20031;-58
2022/08/10 03:47:45;;;;;;;4.10;3.72;;;;;;;14.72;100.00;102593.44;4992154;28;20047;-56
2022/08/10 03:50:11;;;;;;;4.00;3.70;;;;;;;14.70;100.00;102592.59;4991684;28;20030;-55
2022/08/10 03:52:37;;;;;;;4.63;3.88;;;;;;;14.64;100.00;102582.13;4991562;28;20031;-55
2022/08/10 03:55:03;;;;;;;4.45;4.05;;;;;;;14.67;100.00;102589.13;4975738;28;20130;-57
2022/08/10 03:57:29;;;;;;;4.57;4.18;;;;;;;14.62;100.00;102590.09;4991879;28;20414;-57
2022/08/10 03:59:55;;;;;;;4.18;3.78;;;;;;;14.61;100.00;102592.78;4975581;28;20415;-55
2022/08/10 04:02:20;;;;;;;5.05;4.57;;;;;;;14.29;100.00;102540.44;4976622;28;20042;-56
2022/08/10 04:04:46;;;;;;;5.13;4.72;;;;;;;14.58;100.00;102588.44;4976701;28;20083;-55
2022/08/10 04:07:11;;;;;;;4.85;4.47;;;;;;;14.43;100.00;102562.25;4991423;28;20114;-53
2022/08/10 04:09:38;;;;;;;5.75;4.28;;;;;;;14.53;100.00;102586.78;4975580;28;20368;-56
2022/08/10 04:12:04;;;;;;;4.75;4.35;;;;;;;14.53;100.00;102584.13;4976489;28;20038;-53
2022/08/10 04:14:29;;;;;;;5.40;4.93;;;;;;;14.50;100.00;102589.50;4976298;28;20046;-55
2022/08/10 04:16:55;;;;;;;5.72;5.15;;;;;;;14.39;100.00;102579.09;4991522;28;20030;-57
2022/08/10 04:19:20;;;;;;;5.10;4.72;;;;;;;14.45;100.00;102586.06;4976278;28;20522;-53
2022/08/10 04:22:07;;;;;;;5.60;5.10;;;;;;;14.46;100.00;102582.50;4976256;28;20035;-54
2022/08/10 04:24:35;;;;;;;5.60;5.10;;;;;;;14.16;100.00;102546.88;4991296;28;20110;-57
2022/08/10 04:27:01;;;;;;;6.03;5.43;;;;;;;14.44;100.00;102579.91;4991252;28;20126;-56
2022/08/10 04:29:26;;;;;;;5.95;5.35;;;;;;;14.07;100.00;102526.75;4976247;28;20114;-56
2022/08/10 04:31:52;;;;;;;6.25;5.63;;;;;;;14.37;100.00;102575.63;4991041;28;20081;-58
2022/08/10 04:34:19;;;;;;;7.60;5.32;;;;;;;14.40;100.00;102574.69;4975932;28;20043;-59
2022/08/10 04:36:46;;;;;;;8.65;5.45;;;;;;;14.20;100.00;102537.09;4976311;28;20042;-60
2022/08/10 04:39:12;;;;;;;5.68;5.22;;;;;;;14.17;100.00;102529.22;4974669;28;20039;-59
2022/08/10 04:41:38;;;;;;;6.47;5.97;;;;;;;14.16;100.00;102520.41;4975887;28;20046;-57
2022/08/10 04:44:03;;;;;;;7.38;6.75;;;;;;;14.48;100.00;102588.63;4974691;28;20046;-58
2022/08/10 04:46:28;;;;;;;7.07;6.38;;;;;;;14.31;100.00;102557.19;4990689;28;20050;-55
2022/08/10 04:48:53;;;;;;;6.97;5.93;;;;;;;14.46;100.00;102583.38;4991028;28;20037;-56
2022/08/10 04:51:19;;;;;;;7.00;6.13;;;;;;;14.20;100.00;102524.75;4990874;28;20130;-57
2022/08/10 04:53:46;;;;;;;8.30;6.43;;;;;;;14.26;100.00;102534.34;4975873;28;20409;-54
2022/08/10 04:56:12;;;;;;;7.35;6.10;;;;;;;14.62;100.00;102579.50;4975792;28;20061;-59
2022/08/10 04:58:37;;;;;;;7.00;6.30;;;;;;;14.67;100.00;102575.88;4974686;28;20101;-58
2022/08/10 05:01:03;;;;;;;7.05;6.45;;;;;;;14.42;100.00;102539.31;4975608;28;20069;-57
2022/08/10 05:03:28;;;;;;;6.88;6.30;;;;;;;14.38;100.00;102526.16;4975864;28;20621;-58
2022/08/10 05:05:53;;;;;;;10.27;6.15;;;;;;;14.76;100.00;102597.78;4975848;28;20039;-58
2022/08/10 05:08:18;;;;;;;7.95;7.18;;;;;;;14.70;100.00;102574.03;4975729;28;20163;-58
2022/08/10 05:10:44;;;;;;;7.15;6.55;;;;;;;14.72;100.00;102580.19;4975532;28;20038;-56
2022/08/10 05:13:09;;;;;;;7.00;6.38;;;;;;;14.82;100.00;102592.34;4975332;28;20042;-58
2022/08/10 05:15:35;;;;;;;7.03;6.32;;;;;;;14.48;100.00;102528.56;4975367;28;20494;-58
2022/08/10 05:18:00;;;;;;;9.00;6.13;;;;;;;14.81;100.00;102579.09;4975293;28;20258;-54
2022/08/10 05:20:26;;;;;;;7.13;6.53;;;;;;;14.89;100.00;102583.31;4975564;28;20034;-56
2022/08/10 05:22:51;;;;;;;10.27;6.30;;;;;;;14.94;100.00;102596.50;4975302;28;20035;-54
2022/08/10 05:25:18;;;;;;;7.10;6.40;;;;;;;14.98;100.00;102584.88;4975241;28;20126;-56
2022/08/10 05:27:45;;;;;;;7.82;7.03;;;;;;;14.97;100.00;102583.16;4973783;28;20398;-56
2022/08/10 05:30:13;;;;;;;7.53;6.75;;;;;;;15.03;100.00;102586.53;4974866;28;20035;-57
2022/08/10 05:32:38;;;;;;;7.60;6.63;;;;;;;15.06;100.00;102565.22;4989779;28;20035;-52
2022/08/10 05:35:04;;;;;;;8.18;7.15;;;;;;;15.11;100.00;102567.78;4974889;28;20026;-57
2022/08/10 05:37:30;;;;;;;7.82;7.03;;;;;;;14.93;100.00;102525.78;4975025;28;20035;-56
2022/08/10 05:39:56;;;;;;;8.38;7.60;;;;;;;15.35;100.00;102582.25;4989590;28;20027;-56
2022/08/10 05:42:22;;;;;;;8.20;7.40;;;;;;;15.38;100.00;102575.06;4989780;28;20031;-53
2022/08/10 05:44:48;;;;;;;9.13;8.07;;;;;;;15.50;100.00;102576.59;4974358;28;20486;-54
2022/08/10 05:47:13;;;;;;;9.02;8.15;;;;;;;15.29;100.00;102519.59;4974774;28;20042;-53
2022/08/10 05:49:39;;;;;;;10.43;8.18;;;;;;;15.62;100.00;102563.00;4989633;28;20027;-57
2022/08/10 05:52:04;;;;;;;8.52;7.47;;;;;;;15.45;100.00;102520.94;4989707;28;20041;-55
2022/08/10 05:54:30;;;;;;;9.13;7.80;;;;;;;15.87;100.00;102581.81;4973510;28;20027;-57
2022/08/10 05:56:55;;;;;;;11.85;7.97;;;;;;;15.66;100.00;102527.50;4974765;28;20031;-56
2022/08/10 05:59:23;;;;;;;9.50;8.57;;;;;;;15.70;100.00;102510.59;4974492;28;20042;-55
2022/08/10 06:01:50;;;;;;;10.48;8.05;;;;;;;16.21;100.00;102587.94;4974614;28;20090;-58
2022/08/10 06:04:20;;;;;;;9.23;8.27;;;;;;;16.29;100.00;102570.00;4974425;28;20030;-55
2022/08/10 06:06:47;;;;;;;11.68;8.68;;;;;;;16.40;100.00;102585.66;4974296;28;20030;-56
2022/08/10 06:09:14;;;;;;;9.05;8.05;;;;;;;16.44;100.00;102572.19;4974574;28;20093;-53
2022/08/10 06:11:39;;;;;;;8.57;7.72;;;;;;;16.61;100.00;102585.03;4974281;28;20121;-55
2022/08/10 06:16:50;;;;;;;9.00;8.10;;;;;;;16.61;100.00;102546.03;4973443;28;20085;-53
2022/08/10 06:19:16;;;;;;;9.80;8.90;;;;;;;16.95;100.00;102584.88;4974340;28;20385;-56
2022/08/10 06:21:44;;;;;;;7.97;7.18;;;;;;;17.04;100.00;102582.81;4974245;28;20035;-56
2022/08/10 06:24:10;;;;;;;8.75;7.95;;;;;;;17.12;100.00;102591.41;4988942;28;20505;-57
2022/08/10 06:26:36;;;;;;;9.27;7.55;;;;;;;17.24;100.00;102587.50;4972610;28;20027;-58
2022/08/10 06:29:10;;;;;;;7.97;7.20;;;;;;;17.37;100.00;102592.34;4972719;28;20465;-58
2022/08/10 06:31:38;;;;;;;8.30;7.50;;;;;;;17.48;100.00;102589.34;4973961;28;20039;-54
2022/08/10 06:34:06;;;;;;;9.30;7.85;;;;;;;17.39;100.00;102563.03;4972657;28;20493;-56
2022/08/10 06:36:32;;;;;;;8.63;7.47;;;;;;;17.78;100.00;102598.09;4988825;28;20045;-56
2022/08/10 06:38:58;;;;;;;8.05;7.15;;;;;;;17.63;100.00;102548.06;4972484;28;20422;-55
2022/08/10 06:41:25;;;;;;;7.82;6.88;;;;;;;18.01;100.00;102602.66;4988622;28;20055;-59
2022/08/10 06:43:59;;;;;;;8.57;6.47;;;;;;;17.84;100.00;102552.63;4972585;28;20085;-55
2022/08/10 06:46:26;;;;;;;8.30;6.38;;;;;;;17.98;100.00;102563.63;4988607;28;20554;-60
2022/08/10 06:48:59;;;;;;;6.80;6.10;;;;;;;18.34;100.00;102604.09;4988655;28;20038;-59
2022/08/10 06:51:35;;;;;;;7.63;6.80;;;;;;;18.33;100.00;102586.38;4973529;28;20033;-58
2022/08/10 06:54:05;;;;;;;6.72;6.13;;;;;;;18.54;100.00;102598.91;4972414;28;20038;-58
2022/08/10 06:56:32;;;;;;;7.32;6.68;;;;;;;18.70;100.00;102616.09;4987851;28;20030;-58
2022/08/10 06:59:06;;;;;;;7.63;5.53;;;;;;;18.56;100.00;102565.09;4988621;28;20114;-56
2022/08/10 07:01:36;;;;;;;6.05;5.25;;;;;;;19.00;100.00;102627.38;4988219;28;20062;-58
2022/08/10 07:04:05;;;;;;;7.00;6.30;;;;;;;19.14;100.00;102617.03;4972186;28;20038;-55
2022/08/10 07:06:32;;;;;;;7.00;6.38;;;;;;;19.20;100.00;102607.91;4972121;28;20285;-59
2022/08/10 07:09:00;;;;;;;7.95;5.80;;;;;;;19.31;100.00;102614.53;4973365;28;20093;-59
2022/08/10 07:11:26;;;;;;;6.15;5.55;;;;;;;19.45;100.00;102614.88;4973236;28;20041;-59
2022/08/10 07:13:53;;;;;;;6.35;5.75;;;;;;;19.56;100.00;102622.44;4972093;28;20038;-58
2022/08/10 07:16:19;;;;;;;6.05;5.43;;;;;;;19.63;100.00;102615.91;4972090;28;20031;-58
2022/08/10 07:18:46;;;;;;;6.22;5.35;;;;;;;19.72;100.00;102626.22;4988259;28;20066;-53
2022/08/10 07:21:13;;;;;;;5.35;4.95;;;;;;;19.80;100.00;102621.41;4988521;28;20046;-57
2022/08/10 07:23:39;;;;;;;6.80;5.45;;;;;;;19.83;100.00;102604.38;4972112;28;20471;-56
2022/08/10 07:26:05;;;;;;;6.07;5.47;;;;;;;19.83;100.00;102615.06;4973141;28;20046;-57
2022/08/10 07:28:32;;;;;;;7.22;5.38;;;;;;;19.64;100.00;102578.44;4973183;28;20035;-57
2022/08/10 07:30:59;;;;;;;6.28;5.68;;;;;;;20.03;100.00;102602.56;4972073;28;20478;-58
2022/08/10 07:33:24;;;;;;;6.65;5.10;;;;;;;20.28;100.00;102621.13;4988050;28;20038;-59
2022/08/10 07:35:50;;;;;;;6.57;5.97;;;;;;;20.48;100.00;102637.13;4972027;28;20403;-57
2022/08/10 07:38:20;;;;;;;6.93;5.57;;;;;;;20.55;100.00;102622.53;4973232;28;20055;-58
2022/08/10 07:40:46;;;;;;;6.60;4.72;;;;;;;20.43;100.00;102592.81;4973385;28;20086;-58
2022/08/10 07:43:13;;;;;;;6.10;4.93;;;;;;;20.81;100.00;102634.69;4971833;28;20042;-59
2022/08/10 07:45:38;;;;;;;5.55;4.70;;;;;;;20.80;100.00;102608.88;4988018;28;20122;-55
2022/08/10 07:48:26;;;;;;;8.23;4.25;;;;;;;21.30;100.00;102655.56;4988272;28;20130;-58
2022/08/10 07:50:57;;;;;;;7.20;4.70;;;;;;;21.63;100.00;102610.13;4988331;28;20034;-60
2022/08/10 07:53:26;;;;;;;4.93;4.43;;;;;;;22.36;100.00;102658.19;4987760;28;20049;-57
2022/08/10 07:55:53;;;;;;;5.15;4.28;;;;;;;;;;4972721;28;20031;-58
2022/08/10 07:58:21;;;;;;;4.78;4.03;;;;;;;23.10;100.00;102664.00;4987583;28;20030;-59
2022/08/10 08:00:47;;;;;;;5.30;4.25;;;;;;;23.58;100.00;102643.38;4972821;28;20379;-58
2022/08/10 08:03:13;;;;;;;4.22;3.60;;;;;;;24.27;100.00;102681.38;4986229;28;20078;-58
2022/08/10 08:05:39;;;;;;;4.88;4.00;;;;;;;24.60;100.00;102682.00;4987562;28;20097;-57
2022/08/10 08:08:06;;;;;;;4.93;4.43;;;;;;;24.76;100.00;102660.34;4988969;28;20038;-55
2022/08/10 08:10:32;;;;;;;4.93;4.53;;;;;;;25.39;100.00;102690.41;4974869;28;20096;-58
2022/08/10 08:12:58;;;;;;;5.05;4.18;;;;;;;25.16;100.00;102698.13;4991451;28;20462;-58
2022/08/10 08:15:24;;;;;;;4.78;4.38;;;;;;;25.17;100.00;102702.56;4989785;28;20157;-55
2022/08/10 08:17:51;;;;;;;4.75;4.35;;;;;;;25.48;100.00;102671.81;4993931;28;20042;-57
2022/08/10 08:20:17;;;;;;;5.95;5.35;;;;;;;25.80;100.00;102695.78;4994368;28;20034;-59
2022/08/10 08:22:47;;;;;;;5.20;4.70;;;;;;;26.01;100.00;102673.59;4993237;28;20030;-55
2022/08/10 08:25:14;;;;;;;4.00;3.58;;;;;;;26.11;100.00;102673.84;4961513;28;20104;-56
2022/08/10 08:27:40;;;;;;;5.35;4.20;;;;;;;26.12;100.00;102708.81;4978000;28;20034;-56
2022/08/10 08:30:09;;;;;;;7.90;4.20;;;;;;;26.27;100.00;102696.13;4994046;28;20065;-56
2022/08/10 08:32:37;;;;;;;7.10;4.40;;;;;;;26.76;100.00;102704.38;4995593;28;20058;-57
2022/08/10 08:35:05;;;;;;;4.75;4.30;;;;;;;27.08;100.00;102700.25;4994140;28;20030;-57
2022/08/10 08:37:32;;;;;;;5.95;5.25;;;;;;;27.18;100.00;102705.84;4994143;28;20058;-58
2022/08/10 08:39:58;;;;;;;5.28;4.18;;;;;;;26.90;100.00;102662.88;4995065;28;20043;-58
2022/08/10 08:43:00;;;;;;;4.70;3.38;;;;;;;27.14;100.00;102710.63;4994371;28;20042;-58
2022/08/10 08:45:47;;;;;;;5.00;2.83;;;;;;;27.16;100.00;102708.66;4995406;28;20037;-56
2022/08/10 08:48:19;;;;;;;2.90;2.50;;;;;;;27.35;100.00;102700.91;4995354;28;20030;-58
2022/08/10 08:51:09;;;;;;;4.25;3.08;;;;;;;27.53;100.00;102695.16;4993912;28;20027;-59
2022/08/10 08:53:55;;;;;;;3.10;2.65;;;;;;;27.92;100.00;102703.84;4995245;28;20489;-58
2022/08/10 08:56:27;;;;;;;6.82;2.10;;;;;;;28.06;100.00;102669.47;4994911;28;20348;-57
2022/08/10 08:59:04;;;;;;;5.20;2.65;;;;;;;28.14;100.00;102708.50;4994155;28;20445;-57
2022/08/10 09:02:04;;;;;;;4.00;3.15;;;;;;;28.25;100.00;102704.97;4995246;28;20430;-58
2022/08/10 09:04:39;;;;;;;3.47;3.15;;;;;;;28.06;100.00;102661.34;4995030;28;20037;-56
2022/08/10 09:07:11;;;;;;;5.22;2.30;;;;;;;28.83;100.00;102701.28;4994888;28;20027;-58
2022/08/10 09:09:50;;;;;;;2.92;2.50;;;;;;;29.37;100.00;102685.94;4994867;28;20042;-57
2022/08/10 09:12:33;;;;;;;3.08;2.78;;;;;;;29.48;100.00;102696.78;4993707;28;20366;-58
2022/08/10 09:15:03;;;;;;;3.10;2.28;;;;;;;29.69;100.00;102680.53;4993382;28;20041;-58
2022/08/10 09:17:41;;;;;;;5.22;1.80;;;;;;;29.72;100.00;102660.41;4994797;28;20026;-56
2022/08/10 09:20:18;;;;;;;2.65;1.55;;;;;;;29.85;100.00;102662.03;4992649;28;20026;-59
2022/08/10 09:23:07;;;;;;;4.07;2.08;;;;;;;30.16;100.00;102695.53;4993671;28;20034;-59
2022/08/10 09:25:35;;;;;;;4.22;2.15;;;;;;;29.76;100.00;102653.75;4993343;28;20031;-58
2022/08/10 09:28:06;;;;;;;3.50;2.03;;;;;;;30.15;100.00;102669.38;4994790;28;20035;-56
2022/08/10 09:30:31;;;;;;;3.17;2.50;;;;;;;30.41;100.00;102681.59;4993521;28;20038;-58
2022/08/10 09:33:05;;;;;;;5.80;2.13;;;;;;;30.74;100.00;102682.31;4992694;28;20045;-57
2022/08/10 09:35:35;;;;;;;4.03;1.73;;;;;;;30.92;100.00;102678.81;4991812;28;20401;-57
2022/08/10 09:38:15;;;;;;;4.45;1.98;;;;;;;30.74;100.00;102666.88;4992771;28;20030;-56
2022/08/10 09:40:52;;;;;;;;;;;;;;;30.81;96.93;102667.19;4994434;28;20078;-50
2022/08/10 09:43:34;;;;;;;1.98;1.58;;;;;;;31.07;94.26;102674.75;4993139;28;19914;-51
2022/08/10 09:46:13;;;;;;;3.08;1.40;;;;;;;30.90;93.09;102622.84;4993124;28;20030;-50
2022/08/10 09:48:57;;;;;;;2.50;1.33;;;;;;;31.51;94.36;102662.56;4992832;28;20026;-56
2022/08/10 09:51:39;;;;;;;3.85;1.20;;;;;;;31.59;84.26;102656.41;4993072;28;20410;-49
2022/08/10 09:54:26;;;;;;;2.63;1.15;;;;;;;31.68;89.19;102650.97;4992852;28;20073;-52
2022/08/10 09:57:10;;;;;;;3.80;1.40;;;;;;;31.64;87.25;102649.53;4993834;28;20474;-53
2022/08/10 09:59:55;;;;;;;2.10;1.08;;;;;;;32.09;91.54;102614.41;4994140;28;20034;-62
2022/08/10 10:02:41;;;;;;;2.38;1.20;;;;;;;32.00;80.22;102650.66;4994127;28;20066;-60
2022/08/10 10:05:38;;;;;;;1.27;1.17;;;;;;;32.10;84.48;102643.38;4994288;28;20034;-62
2022/08/10 10:08:22;;;;;;;3.03;0.98;;;;;;;32.30;78.43;102646.91;4992301;28;20398;-60
2022/08/10 10:11:09;;;;;;;2.83;1.08;;;;;;;32.43;84.53;102638.41;4992553;28;20050;-60
2022/08/10 10:13:45;;;;;;;1.60;0.82;;;;;;;32.23;75.35;102656.66;4992385;28;20045;-60
2022/08/10 10:16:25;;;;;;;4.00;1.60;;;;;;;32.45;78.04;102628.22;4992483;28;20038;-61
2022/08/10 10:19:03;;;;;;;1.60;0.90;;;;;;;32.80;72.11;102640.16;4992372;28;20060;-60
2022/08/10 10:21:49;;;;;;;5.85;1.52;;;;;;;32.69;75.54;102588.50;4992210;28;20504;-59
2022/08/10 10:24:34;;;;;;;2.38;1.23;;;;;;;32.95;71.82;102645.09;4992275;28;20030;-60
2022/08/10 10:27:08;;;;;;;2.55;1.13;;;;;;;33.08;75.51;102631.97;4992464;28;20117;-58
2022/08/10 10:30:03;;;;;;;2.90;1.33;;;;;;;33.17;77.57;102633.78;4992450;28;20038;-55
2022/08/10 10:32:57;;;;;;;2.53;1.10;;;;;;;33.39;77.31;102614.25;4993140;28;20383;-59
2022/08/10 10:35:23;;;;;;;2.28;1.10;;;;;;;33.88;74.86;102624.59;4992015;28;20129;-61
2022/08/10 10:37:51;;;;;;;2.30;1.05;;;;;;;34.02;68.68;102628.63;4993441;28;20641;-59
2022/08/10 10:40:17;;;;;;;1.90;1.00;;;;;;;33.42;55.94;102581.16;4975561;28;20100;-58
2022/08/10 10:42:49;;;;;;;1.15;0.85;;;;;;;33.37;62.18;102622.56;4991964;28;20471;-60
2022/08/10 10:45:18;;;;;;;3.10;1.17;;;;;;;33.36;70.61;102628.19;4992075;28;20057;-60
2022/08/10 10:48:01;;;;;;;1.45;1.10;;;;;;;33.79;62.82;102614.63;4993171;28;20339;-60
2022/08/10 10:50:54;;;;;;;1.52;0.90;;;;;;;33.90;51.67;102618.97;4993070;28;20146;-58
2022/08/10 10:53:34;;;;;;;2.17;0.90;;;;;;;34.11;57.30;102616.78;4992726;28;20121;-60
2022/08/10 10:56:10;;;;;;;2.45;1.00;;;;;;;34.20;59.33;102621.28;4975668;28;20057;-59
2022/08/10 10:58:41;;;;;;;2.53;0.88;;;;;;;34.70;50.42;102609.63;4992939;28;20030;-58
2022/08/10 11:01:12;;;;;;;1.60;0.90;;;;;;;35.09;53.49;102615.41;4992909;28;20493;-60
2022/08/10 11:03:59;;;;;;;1.67;0.98;;;;;;;35.32;50.24;102605.56;4992864;28;20416;-60
2022/08/10 11:06:55;;;;;;;0.88;0.77;;;;;;;34.16;52.76;102534.28;4993020;28;20042;-59
2022/08/10 11:09:33;;;;;;;1.75;1.00;;;;;;;34.91;54.79;102608.13;4992586;28;20504;-59
2022/08/10 11:12:05;;;;;;;0.95;0.85;;;;;;;35.30;45.22;102610.31;4991545;28;20030;-59
2022/08/10 11:14:41;;;;;;;2.53;0.80;;;;;;;35.01;50.22;102570.56;4991740;28;20108;-61
2022/08/10 11:17:10;;;;;;;3.10;1.08;;;;;;;35.07;42.22;102598.25;4992446;28;20034;-58
2022/08/10 11:19:47;;;;;;;3.40;0.90;;;;;;;35.01;59.65;102586.97;4991497;28;20037;-60
2022/08/10 11:22:20;;;;;;;2.65;1.10;;;;;;;34.98;42.94;102576.34;4991476;28;20114;-61
2022/08/10 11:24:53;;;;;;;3.58;1.17;;;;;;;35.28;46.76;102560.34;4975406;28;20026;-60
2022/08/10 11:27:47;;;;;;;2.50;1.20;;;;;;;35.46;50.04;102578.34;4991549;28;20034;-59
2022/08/10 11:30:18;;;;;;;2.15;1.10;;;;;;;35.34;44.85;102555.06;4991914;28;20097;-59
2022/08/10 11:33:21;;;;;;;4.18;1.15;;;;;;;35.07;56.20;102590.06;4992377;28;20027;-62
2022/08/10 11:35:51;;;;;;;3.30;1.20;;;;;;;35.49;55.28;102593.59;4992733;28;20511;-62
2022/08/10 11:38:41;;;;;;;4.38;1.73;;;;;;;35.29;53.17;102557.44;4991231;28;20173;-62